createdAt,value
2019-03-31T00:00:37.998Z,8.43
2019-03-31T00:03:05.415Z,8.87
2019-03-31T00:05:37.133Z,7.90
2019-03-31T00:08:01.956Z,10.13
2019-03-31T00:10:29.234Z,6.20
2019-03-31T00:12:59.366Z,5.83
2019-03-31T00:15:26.607Z,5.87
2019-03-31T00:17:53.978Z,6.03
2019-03-31T00:20:21.276Z,5.67
2019-03-31T00:22:48.860Z,10.60
2019-03-31T00:25:16.204Z,5.23
2019-03-31T00:27:43.705Z,9.80
2019-03-31T00:30:11.060Z,8.00
2019-03-31T00:32:38.372Z,5.63
2019-03-31T00:35:06.025Z,6.00
2019-03-31T00:37:33.563Z,8.90
2019-03-31T00:40:00.825Z,6.10
2019-03-31T00:42:28.068Z,6.00
2019-03-31T00:44:55.347Z,5.93
2019-03-31T00:47:23.041Z,7.00
2019-03-31T00:49:50.315Z,11.00
2019-03-31T00:52:20.286Z,6.80
2019-03-31T00:54:47.569Z,5.73
2019-03-31T00:57:14.861Z,7.27
2019-03-31T00:59:42.286Z,5.80
2019-03-31T01:02:13.548Z,7.70
2019-03-31T01:04:40.828Z,10.43
2019-03-31T01:07:08.719Z,9.50
2019-03-31T01:09:38.916Z,5.40
2019-03-31T01:12:06.211Z,7.80
2019-03-31T01:14:33.532Z,5.93
2019-03-31T01:17:01.156Z,5.80
2019-03-31T01:19:28.979Z,6.13
2019-03-31T01:22:04.985Z,7.07
2019-03-31T01:24:32.690Z,6.07
2019-03-31T01:27:00.117Z,6.20
2019-03-31T01:29:27.490Z,7.50
2019-03-31T01:31:55.719Z,7.57
2019-03-31T01:34:23.269Z,9.93
2019-03-31T01:36:50.659Z,7.43
2019-03-31T01:39:20.517Z,7.83
2019-03-31T01:41:47.771Z,6.27
2019-03-31T01:44:15.056Z,6.40
2019-03-31T01:46:42.344Z,7.80
2019-03-31T01:49:09.615Z,8.20
2019-03-31T01:51:36.906Z,6.00
2019-03-31T01:54:04.749Z,11.50
2019-03-31T01:56:32.033Z,5.53
2019-03-31T01:58:59.528Z,6.70
2019-03-31T02:01:26.818Z,5.27
2019-03-31T02:03:54.122Z,5.30
2019-03-31T02:06:21.385Z,5.27
2019-03-31T02:08:48.726Z,8.73
2019-03-31T02:11:15.992Z,10.60
2019-03-31T02:13:43.278Z,7.63
2019-03-31T02:16:11.213Z,7.20
2019-03-31T02:18:38.677Z,6.70
2019-03-31T02:21:12.112Z,8.10
2019-03-31T02:23:39.368Z,6.83
2019-03-31T02:26:06.909Z,12.13
2019-03-31T02:28:34.189Z,5.80
2019-03-31T02:31:01.523Z,6.67
2019-03-31T02:33:28.795Z,6.10
2019-03-31T02:35:56.098Z,9.03
2019-03-31T02:38:24.188Z,5.87
2019-03-31T02:40:51.507Z,5.70
2019-03-31T02:43:18.896Z,8.13
2019-03-31T02:45:46.293Z,6.73
2019-03-31T02:48:13.579Z,6.23
2019-03-31T02:50:45.472Z,5.50
2019-03-31T02:53:13.141Z,5.53
2019-03-31T02:55:40.511Z,4.60
2019-03-31T02:58:11.925Z,5.30
2019-03-31T03:00:39.225Z,5.20
2019-03-31T03:03:07.387Z,9.27
2019-03-31T03:05:34.659Z,5.23
2019-03-31T03:08:04.699Z,7.97
2019-03-31T03:10:32.001Z,9.13
2019-03-31T03:12:59.486Z,5.00
2019-03-31T03:15:26.848Z,5.90
2019-03-31T03:17:54.153Z,5.40
2019-03-31T03:20:25.004Z,5.73
2019-03-31T03:22:52.393Z,5.83
2019-03-31T03:25:22.292Z,7.40
2019-03-31T03:27:49.783Z,5.53
2019-03-31T03:30:17.403Z,6.20
2019-03-31T03:33:12.374Z,5.70
2019-03-31T03:35:14.567Z,7.57
2019-03-31T03:37:41.935Z,6.60
2019-03-31T03:40:09.215Z,10.53
2019-03-31T03:42:36.492Z,6.27
2019-03-31T03:45:06.239Z,6.13
2019-03-31T03:47:33.677Z,6.27
2019-03-31T03:50:01.067Z,5.93
2019-03-31T03:52:29.238Z,5.77
2019-03-31T03:54:57.127Z,5.23
2019-03-31T03:57:24.568Z,4.70
2019-03-31T03:59:52.102Z,5.37
2019-03-31T04:02:19.396Z,5.23
2019-03-31T04:04:46.719Z,5.50
2019-03-31T04:07:17.024Z,4.70
2019-03-31T04:09:44.333Z,4.53
2019-03-31T04:12:11.944Z,4.90
2019-03-31T04:14:39.266Z,4.90
2019-03-31T04:17:06.587Z,5.27
2019-03-31T04:19:36.161Z,4.90
2019-03-31T04:22:03.677Z,6.03
2019-03-31T04:24:32.897Z,5.10
2019-03-31T04:27:00.561Z,5.67
2019-03-31T04:29:27.967Z,5.50
2019-03-31T04:31:57.412Z,5.50
2019-03-31T04:34:24.835Z,5.80
2019-03-31T04:36:52.582Z,5.83
2019-03-31T04:39:19.846Z,5.57
2019-03-31T04:41:47.227Z,5.60
2019-03-31T04:44:14.590Z,8.23
2019-03-31T04:46:41.844Z,5.83
2019-03-31T04:49:09.120Z,7.27
2019-03-31T04:51:36.468Z,6.40
2019-03-31T04:54:04.078Z,6.57
2019-03-31T04:56:31.453Z,6.03
2019-03-31T04:58:58.771Z,7.03
2019-03-31T05:01:28.303Z,5.80
2019-03-31T05:04:04.514Z,6.67
2019-03-31T05:06:26.738Z,6.40
2019-03-31T05:08:54.059Z,5.90
2019-03-31T05:11:21.392Z,5.77
2019-03-31T05:13:48.873Z,5.87
2019-03-31T05:16:16.325Z,6.60
2019-03-31T05:18:43.626Z,5.60
2019-03-31T05:21:11.170Z,5.37
2019-03-31T05:23:40.917Z,7.60
2019-03-31T05:26:08.462Z,8.10
2019-03-31T05:28:35.858Z,5.80
2019-03-31T05:31:03.243Z,5.10
2019-03-31T05:33:30.558Z,6.00
2019-03-31T05:35:58.538Z,5.83
2019-03-31T05:38:25.805Z,7.03
2019-03-31T05:40:53.063Z,5.50
2019-03-31T05:43:20.319Z,6.70
2019-03-31T05:45:52.506Z,7.00
2019-03-31T05:48:19.119Z,6.87
2019-03-31T05:50:46.854Z,4.93
2019-03-31T05:53:14.100Z,5.30
2019-03-31T05:55:42.290Z,5.33
2019-03-31T05:58:09.566Z,5.20
2019-03-31T06:00:48.031Z,4.63
2019-03-31T06:03:15.279Z,5.73
2019-03-31T06:05:42.663Z,4.90
2019-03-31T06:08:09.962Z,5.10
2019-03-31T06:10:39.746Z,4.93
2019-03-31T06:13:07.496Z,4.93
2019-03-31T06:15:34.766Z,5.30
2019-03-31T06:18:02.071Z,5.27
2019-03-31T06:20:29.461Z,5.87
2019-03-31T06:22:58.627Z,5.90
2019-03-31T06:25:26.173Z,9.40
2019-03-31T06:27:55.914Z,6.10
2019-03-31T06:30:23.235Z,6.30
2019-03-31T06:32:50.525Z,6.43
2019-03-31T06:35:17.822Z,5.40
2019-03-31T06:37:46.266Z,8.13
2019-03-31T06:40:14.011Z,6.87
2019-03-31T06:42:41.317Z,5.70
2019-03-31T06:45:08.614Z,5.60
2019-03-31T06:47:36.277Z,4.80
2019-03-31T06:50:04.637Z,5.23
2019-03-31T06:52:32.335Z,4.40
2019-03-31T06:54:59.590Z,4.60
2019-03-31T06:57:27.061Z,5.10
2019-03-31T06:59:54.577Z,5.13
2019-03-31T07:02:21.795Z,4.93
2019-03-31T07:05:00.421Z,5.60
2019-03-31T07:07:18.264Z,4.63
2019-03-31T07:09:46.054Z,6.90
2019-03-31T07:12:13.479Z,5.37
2019-03-31T07:14:41.044Z,5.00
2019-03-31T07:17:08.329Z,7.70
2019-03-31T07:19:36.489Z,4.87
2019-03-31T07:22:03.879Z,5.40
2019-03-31T07:24:31.157Z,4.77
2019-03-31T07:26:58.732Z,6.60
2019-03-31T07:29:26.123Z,5.43
2019-03-31T07:31:53.393Z,5.50
2019-03-31T07:34:20.751Z,6.10
2019-03-31T07:36:48.609Z,5.60
2019-03-31T07:39:15.995Z,5.67
2019-03-31T07:41:43.656Z,5.80
2019-03-31T07:44:11.097Z,6.83
2019-03-31T07:46:38.412Z,5.63
2019-03-31T07:49:05.679Z,6.00
2019-03-31T07:51:33.490Z,13.23
2019-03-31T07:54:01.108Z,6.23
2019-03-31T07:56:28.761Z,5.43
2019-03-31T07:58:56.232Z,7.00
2019-03-31T08:01:23.749Z,5.97
2019-03-31T08:03:51.555Z,6.67
2019-03-31T08:06:18.818Z,7.27
2019-03-31T08:08:46.485Z,6.70
2019-03-31T08:11:16.984Z,6.53
2019-03-31T08:13:43.400Z,13.17
2019-03-31T08:16:11.551Z,7.30
2019-03-31T08:18:38.870Z,6.77
2019-03-31T08:21:06.270Z,6.17
2019-03-31T08:23:36.382Z,7.00
2019-03-31T08:26:03.743Z,13.23
2019-03-31T08:28:30.989Z,7.83
2019-03-31T08:30:58.275Z,9.67
2019-03-31T08:33:27.898Z,10.03
2019-03-31T08:35:56.442Z,8.47
2019-03-31T08:38:24.610Z,11.73
2019-03-31T08:40:52.079Z,10.57
2019-03-31T08:43:19.819Z,8.70
2019-03-31T08:45:47.440Z,9.73
2019-03-31T08:48:14.843Z,17.10
2019-03-31T08:50:42.276Z,11.10
2019-03-31T08:53:09.718Z,13.27
2019-03-31T08:55:38.894Z,9.90
2019-03-31T08:58:06.206Z,8.83
2019-03-31T09:00:51.955Z,11.60
2019-03-31T09:03:19.263Z,10.43
2019-03-31T09:06:01.528Z,12.40
2019-03-31T09:08:22.806Z,9.83
2019-03-31T09:10:52.441Z,10.90
2019-03-31T09:13:20.191Z,9.90
2019-03-31T09:15:49.328Z,12.03
2019-03-31T09:18:17.041Z,11.60
2019-03-31T09:20:44.407Z,13.00
2019-03-31T09:23:11.804Z,12.70
2019-03-31T09:25:39.247Z,18.80
2019-03-31T09:28:06.583Z,13.10
2019-03-31T09:30:34.115Z,10.50
2019-03-31T09:33:01.528Z,11.80
2019-03-31T09:35:28.817Z,14.13
2019-03-31T09:37:56.227Z,10.70
2019-03-31T09:40:23.533Z,13.40
2019-03-31T09:42:50.856Z,10.20
2019-03-31T09:45:18.126Z,10.73
2019-03-31T09:47:45.460Z,10.40
2019-03-31T09:50:12.814Z,16.50
2019-03-31T09:52:40.111Z,10.80
2019-03-31T09:55:08.653Z,11.87
2019-03-31T09:57:36.045Z,12.00
2019-03-31T10:00:04.587Z,10.33
2019-03-31T10:02:32.342Z,11.80
2019-03-31T10:04:59.625Z,8.83
2019-03-31T10:07:26.963Z,6.80
2019-03-31T10:09:54.271Z,8.90
2019-03-31T10:12:21.584Z,9.40
2019-03-31T10:14:48.982Z,9.70
2019-03-31T10:17:16.263Z,8.30
2019-03-31T10:19:43.538Z,10.83
2019-03-31T10:22:11.423Z,8.07
2019-03-31T10:24:38.906Z,8.83
2019-03-31T10:27:06.771Z,5.40
2019-03-31T10:29:34.013Z,5.90
2019-03-31T10:32:03.210Z,5.57
2019-03-31T10:34:30.693Z,6.10
2019-03-31T10:36:58.097Z,7.70
2019-03-31T10:39:25.360Z,10.30
2019-03-31T10:41:52.680Z,8.13
2019-03-31T10:44:19.982Z,8.33
2019-03-31T10:46:47.284Z,7.67
2019-03-31T10:49:14.542Z,6.73
2019-03-31T10:51:41.811Z,3.57
2019-03-31T10:54:09.187Z,4.87
2019-03-31T10:56:36.459Z,5.23
2019-03-31T10:59:04.008Z,4.70
2019-03-31T11:01:31.243Z,9.70
2019-03-31T11:03:58.520Z,6.10
2019-03-31T11:06:26.212Z,8.53
2019-03-31T11:08:53.492Z,7.10
2019-03-31T11:11:21.182Z,10.17
2019-03-31T11:13:48.848Z,4.67
2019-03-31T11:16:16.234Z,5.33
2019-03-31T11:18:43.748Z,6.90
2019-03-31T11:21:18.224Z,6.60
2019-03-31T11:23:46.680Z,5.07
2019-03-31T11:26:13.980Z,6.83
2019-03-31T11:28:41.252Z,7.40
2019-03-31T11:31:08.722Z,12.07
2019-03-31T11:33:36.784Z,6.53
2019-03-31T11:36:07.076Z,7.23
2019-03-31T11:38:34.723Z,11.20
2019-03-31T11:41:02.158Z,8.27
2019-03-31T11:43:29.480Z,7.70
2019-03-31T11:45:57.176Z,8.00
2019-03-31T11:48:24.462Z,7.23
2019-03-31T11:50:52.203Z,10.27
2019-03-31T11:53:19.474Z,10.00
2019-03-31T11:55:46.748Z,8.03
2019-03-31T11:58:14.010Z,9.60
2019-03-31T12:00:46.946Z,8.40
2019-03-31T12:03:14.242Z,7.57
2019-03-31T12:05:41.735Z,12.57
2019-03-31T12:08:09.251Z,7.63
2019-03-31T12:10:36.624Z,8.07
2019-03-31T12:13:03.889Z,7.97
2019-03-31T12:15:31.176Z,11.67
2019-03-31T12:17:58.788Z,8.90
2019-03-31T12:20:26.040Z,8.90
2019-03-31T12:22:53.650Z,15.80
2019-03-31T12:25:20.932Z,9.23
2019-03-31T12:27:48.195Z,6.47
2019-03-31T12:30:21.692Z,5.87
2019-03-31T12:32:48.958Z,10.97
2019-03-31T12:35:16.206Z,8.30
2019-03-31T12:37:43.670Z,6.10
2019-03-31T12:40:22.260Z,8.17
2019-03-31T12:42:50.287Z,7.47
2019-03-31T12:45:17.555Z,7.97
2019-03-31T12:47:44.817Z,7.47
2019-03-31T12:50:12.426Z,8.10
2019-03-31T12:52:47.379Z,10.03
2019-03-31T12:55:10.728Z,8.83
2019-03-31T12:57:38.071Z,11.40
2019-03-31T13:00:05.744Z,6.63
2019-03-31T13:02:33.013Z,10.03
2019-03-31T13:05:00.363Z,12.90
2019-03-31T13:07:27.645Z,9.50
2019-03-31T13:09:54.903Z,8.37
2019-03-31T13:12:22.234Z,7.40
2019-03-31T13:14:49.481Z,6.50
2019-03-31T13:17:16.742Z,6.73
2019-03-31T13:19:46.759Z,7.53
2019-03-31T13:22:14.132Z,7.07
2019-03-31T13:24:41.801Z,6.10
2019-03-31T13:27:09.339Z,10.10
2019-03-31T13:29:38.395Z,7.50
2019-03-31T13:32:06.021Z,6.57
2019-03-31T13:34:33.274Z,7.40
2019-03-31T13:37:00.530Z,7.50
2019-03-31T13:39:27.811Z,8.23
2019-03-31T13:41:55.055Z,8.37
2019-03-31T13:44:22.340Z,9.37
2019-03-31T13:46:49.576Z,7.67
2019-03-31T13:49:16.949Z,17.03
2019-03-31T13:51:44.190Z,10.17
2019-03-31T13:54:11.478Z,6.43
2019-03-31T13:56:39.121Z,7.23
2019-03-31T13:59:09.321Z,7.63
2019-03-31T14:01:37.040Z,6.00
2019-03-31T14:04:04.745Z,6.43
2019-03-31T14:06:32.585Z,5.60
2019-03-31T14:09:00.590Z,6.20
2019-03-31T14:11:27.859Z,6.13
2019-03-31T14:13:56.104Z,6.53
2019-03-31T14:16:23.732Z,6.07
2019-03-31T14:18:51.160Z,6.33
2019-03-31T14:21:18.400Z,9.30
2019-03-31T14:23:45.726Z,8.83
2019-03-31T14:26:13.127Z,6.23
2019-03-31T14:28:42.180Z,6.90
2019-03-31T14:31:09.880Z,6.00
2019-03-31T14:33:37.276Z,7.13
2019-03-31T14:36:04.787Z,6.80
2019-03-31T14:38:40.294Z,6.53
2019-03-31T14:41:03.695Z,9.63
2019-03-31T14:43:31.263Z,6.17
2019-03-31T14:45:59.238Z,9.17
2019-03-31T14:48:26.627Z,7.37
2019-03-31T14:50:53.913Z,8.10
2019-03-31T14:53:21.195Z,5.57
2019-03-31T14:55:48.518Z,7.90
2019-03-31T14:58:15.824Z,8.47
2019-03-31T15:00:43.213Z,6.20
2019-03-31T15:03:10.574Z,8.30
2019-03-31T15:05:38.887Z,6.33
2019-03-31T15:08:06.351Z,7.10
2019-03-31T15:10:33.826Z,9.87
2019-03-31T15:13:01.581Z,6.00
2019-03-31T15:15:30.337Z,6.10
2019-03-31T15:17:57.812Z,11.60
2019-03-31T15:20:25.081Z,6.27
2019-03-31T15:22:52.538Z,7.73
2019-03-31T15:25:19.880Z,6.23
2019-03-31T15:27:47.215Z,5.77
2019-03-31T15:30:14.503Z,6.07
2019-03-31T15:32:41.779Z,5.20
2019-03-31T15:35:09.080Z,8.80
2019-03-31T15:37:36.585Z,5.53
2019-03-31T15:40:04.756Z,5.70
2019-03-31T15:42:32.054Z,8.25
2019-03-31T15:44:59.343Z,7.53
2019-03-31T15:47:26.622Z,6.60
2019-03-31T15:49:53.950Z,5.80
2019-03-31T15:52:21.332Z,7.13
2019-03-31T15:54:48.699Z,6.37
2019-03-31T15:57:16.188Z,6.23
2019-03-31T15:59:52.684Z,6.10
2019-03-31T16:02:21.112Z,7.70
2019-03-31T16:04:48.344Z,5.97
2019-03-31T16:07:15.971Z,5.90
2019-03-31T16:09:44.841Z,8.37
2019-03-31T16:12:11.559Z,9.80
2019-03-31T16:14:38.248Z,7.70
2019-03-31T16:17:04.964Z,7.10
2019-03-31T16:19:31.731Z,9.77
2019-03-31T16:21:59.067Z,8.27
2019-03-31T16:24:40.874Z,7.27
2019-03-31T16:27:07.752Z,10.13
2019-03-31T16:29:34.805Z,8.60
2019-03-31T16:32:01.569Z,7.53
2019-03-31T16:34:28.406Z,13.57
2019-03-31T16:36:55.197Z,12.70
2019-03-31T16:39:22.131Z,13.30
2019-03-31T16:41:49.121Z,14.30
2019-03-31T16:44:18.881Z,18.17
2019-03-31T16:46:45.779Z,19.03
2019-03-31T16:49:12.626Z,13.90
2019-03-31T16:51:39.622Z,13.83
2019-03-31T16:54:06.491Z,18.90
2019-03-31T16:56:33.183Z,16.57
2019-03-31T16:59:00.006Z,16.23
2019-03-31T17:01:26.835Z,18.20
2019-03-31T17:03:53.615Z,22.17
2019-03-31T17:06:20.342Z,20.90
2019-03-31T17:08:47.156Z,16.80
2019-03-31T17:11:13.900Z,18.13
2019-03-31T17:13:40.655Z,21.20
2019-03-31T17:16:07.826Z,21.33
2019-03-31T17:18:34.538Z,26.53
2019-03-31T17:21:01.483Z,30.97
2019-03-31T17:23:28.255Z,30.70
2019-03-31T17:25:55.373Z,32.13
2019-03-31T17:28:22.125Z,34.63
2019-03-31T17:30:48.851Z,31.80
2019-03-31T17:33:15.605Z,34.27
2019-03-31T17:35:42.369Z,31.47
2019-03-31T17:38:09.491Z,30.80
2019-03-31T17:40:36.252Z,34.10
2019-03-31T17:43:02.995Z,30.17
2019-03-31T17:45:30.781Z,30.97
2019-03-31T17:47:57.531Z,30.03
2019-03-31T17:50:24.299Z,33.23
2019-03-31T17:52:51.079Z,34.73
2019-03-31T17:55:18.220Z,37.13
2019-03-31T17:57:46.903Z,28.33
2019-03-31T18:00:13.991Z,33.77
2019-03-31T18:02:40.793Z,30.97
2019-03-31T18:05:07.512Z,29.50
2019-03-31T18:07:34.254Z,28.17
2019-03-31T18:10:00.964Z,31.60
2019-03-31T18:12:27.804Z,30.10
2019-03-31T18:14:54.645Z,30.67
2019-03-31T18:17:21.748Z,31.70
2019-03-31T18:19:48.452Z,31.70
2019-03-31T18:22:18.034Z,32.20
2019-03-31T18:24:44.771Z,31.93
2019-03-31T18:27:11.626Z,33.57
2019-03-31T18:29:40.469Z,33.27
2019-03-31T18:32:07.352Z,32.87
2019-03-31T18:34:37.524Z,31.63
2019-03-31T18:37:04.300Z,32.20
2019-03-31T18:39:31.037Z,36.40
2019-03-31T18:41:57.780Z,36.43
2019-03-31T18:44:24.665Z,34.13
2019-03-31T18:46:51.380Z,33.87
2019-03-31T18:49:18.184Z,34.73
2019-03-31T18:51:44.941Z,37.40
2019-03-31T18:54:24.885Z,38.00
2019-03-31T18:57:08.957Z,40.87
2019-03-31T18:59:55.425Z,42.23
2019-03-31T19:02:32.031Z,46.53
2019-03-31T19:05:09.550Z,47.03
2019-03-31T19:08:04.336Z,40.50
2019-03-31T19:10:52.077Z,44.00
2019-03-31T19:13:54.538Z,42.30
2019-03-31T19:16:28.528Z,41.17
2019-03-31T19:19:17.690Z,45.60
2019-03-31T19:21:59.821Z,44.23
2019-03-31T19:25:00.983Z,62.80
2019-03-31T19:27:50.274Z,41.73
2019-03-31T19:30:24.671Z,46.10
2019-03-31T19:33:11.033Z,41.90
2019-03-31T19:35:59.903Z,45.00
2019-03-31T19:38:43.023Z,39.30
2019-03-31T19:41:21.970Z,43.87
2019-03-31T19:44:05.076Z,39.03
2019-03-31T19:46:47.630Z,40.90
2019-03-31T19:49:25.309Z,44.57
2019-03-31T19:52:26.498Z,43.93
2019-03-31T19:55:16.721Z,43.30
2019-03-31T19:58:01.941Z,42.13
2019-03-31T20:01:03.370Z,36.13
2019-03-31T20:03:49.752Z,38.43
2019-03-31T20:06:28.677Z,36.47
2019-03-31T20:09:00.454Z,36.03
2019-03-31T20:11:41.709Z,32.40
2019-03-31T20:14:27.513Z,33.87
2019-03-31T20:17:06.428Z,35.50
2019-03-31T20:20:00.961Z,32.97
2019-03-31T20:22:54.724Z,35.27
2019-03-31T20:25:50.225Z,31.73
2019-03-31T20:28:26.493Z,33.80
2019-03-31T20:31:07.980Z,32.83
2019-03-31T20:33:55.411Z,33.13
2019-03-31T20:36:41.874Z,27.93
2019-03-31T20:39:17.721Z,29.77
2019-03-31T20:42:13.301Z,31.93
2019-03-31T20:44:39.996Z,26.40
2019-03-31T20:47:06.752Z,26.93
2019-03-31T20:49:33.888Z,28.00
2019-03-31T20:52:00.611Z,30.53
2019-03-31T20:54:27.380Z,28.50
2019-03-31T20:56:54.074Z,27.33
2019-03-31T20:59:20.785Z,29.67
2019-03-31T21:01:47.615Z,29.90
2019-03-31T21:04:14.462Z,22.93
2019-03-31T21:06:43.379Z,24.77
2019-03-31T21:09:10.100Z,24.53
2019-03-31T21:11:36.819Z,27.43
2019-03-31T21:14:03.550Z,23.17
2019-03-31T21:16:30.232Z,21.53
2019-03-31T21:18:57.444Z,26.20
2019-03-31T21:21:24.407Z,22.33
2019-03-31T21:23:51.149Z,23.10
2019-03-31T21:26:17.886Z,20.43
2019-03-31T21:28:44.842Z,24.93
2019-03-31T21:31:11.590Z,25.70
2019-03-31T21:33:38.573Z,22.10
2019-03-31T21:36:05.337Z,21.00
2019-03-31T21:38:32.068Z,21.53
2019-03-31T21:40:59.098Z,23.37
2019-03-31T21:43:25.802Z,22.40
2019-03-31T21:45:52.506Z,20.73
2019-03-31T21:48:19.226Z,22.30
2019-03-31T21:50:45.946Z,22.07
2019-03-31T21:53:12.632Z,19.33
2019-03-31T21:55:39.358Z,23.00
2019-03-31T21:58:06.036Z,21.77
2019-03-31T22:00:52.377Z,23.80
2019-03-31T22:03:19.143Z,26.63
2019-03-31T22:05:46.114Z,20.60
2019-03-31T22:08:12.842Z,19.10
2019-03-31T22:10:39.525Z,21.90
2019-03-31T22:13:06.258Z,21.53
2019-03-31T22:15:33.510Z,24.10
2019-03-31T22:18:00.290Z,21.17
2019-03-31T22:20:27.096Z,21.13
2019-03-31T22:22:53.774Z,21.83
2019-03-31T22:25:20.510Z,20.40
2019-03-31T22:27:47.259Z,20.73
2019-03-31T22:30:14.284Z,21.10
2019-03-31T22:32:41.006Z,23.33
2019-03-31T22:35:08.058Z,20.00
2019-03-31T22:37:34.789Z,26.70
2019-03-31T22:40:03.583Z,20.67
2019-03-31T22:42:30.325Z,21.57
2019-03-31T22:44:57.162Z,19.27
2019-03-31T22:47:23.872Z,20.13
2019-03-31T22:49:50.594Z,23.20
2019-03-31T22:52:17.523Z,20.57
2019-03-31T22:54:44.295Z,18.80
2019-03-31T22:57:11.392Z,17.87
2019-03-31T22:59:38.093Z,21.87
2019-03-31T23:02:04.916Z,19.50
2019-03-31T23:04:31.726Z,17.70
2019-03-31T23:06:58.460Z,19.90
2019-03-31T23:09:25.300Z,19.77
2019-03-31T23:11:52.450Z,19.10
2019-03-31T23:14:19.182Z,20.93
2019-03-31T23:16:46.369Z,18.67
2019-03-31T23:19:13.077Z,20.30
2019-03-31T23:21:39.895Z,20.63
2019-03-31T23:24:06.766Z,22.00
2019-03-31T23:26:34.848Z,19.97
2019-03-31T23:29:03.780Z,18.67
2019-03-31T23:31:30.491Z,25.80
2019-03-31T23:33:57.225Z,20.80
2019-03-31T23:36:23.954Z,25.67
2019-03-31T23:38:50.661Z,18.80
2019-03-31T23:41:17.376Z,21.50
2019-03-31T23:43:44.461Z,19.23
2019-03-31T23:46:11.206Z,22.80
2019-03-31T23:48:37.899Z,24.80
2019-03-31T23:51:04.611Z,21.23
2019-03-31T23:53:31.417Z,21.03
2019-03-31T23:55:58.201Z,20.07
2019-03-31T23:58:24.878Z,22.00
